This is the latest recevied weather packets stored in our database for station/object Ummendorf. If no packets are shown the sender has not sent any weather packets the latest 10 day(s).
| Time | Temp. | Humidity | Pressure | Rain* | Wind** | Luminosity | Snow |
|---|---|---|---|---|---|---|---|
| 1777159929 | 6.11° C | 53% | 1020.5 hPa | 0 mm | - | - | - |
| 1777158129 | 6.67° C | 52% | 1020.4 hPa | 0 mm | - | - | - |
| 1777156330 | 7.78° C | 51% | 1020.2 hPa | 0 mm | - | - | - |
| 1777152732 | 9.44° C | 49% | 1019.9 hPa | 0 mm | - | - | - |
| 1777150929 | 10.56° C | 48% | 1019.9 hPa | 0 mm | - | - | - |
| 1777149130 | 11.67° C | 45% | 1019.6 hPa | 0 mm | - | - | - |
| 1777147329 | 13.33° C | 42% | 1019.3 hPa | 0 mm | - | - | - |
| 1777145530 | 15° C | 37% | 1018.8 hPa | 0 mm | - | - | - |
| 1777143729 | 16.67° C | 31% | 1018.3 hPa | 0 mm | - | - | - |
| 1777141929 | 17.78° C | 28% | 1017.7 hPa | 0 mm | - | - | - |
| 1777140130 | 19.44° C | 25% | 1017.3 hPa | 0 mm | - | - | - |
| 1777138331 | 20° C | 22% | 1016.9 hPa | 0 mm | - | - | - |
| 1777136530 | 20.56° C | 19% | 1016.7 hPa | 0 mm | - | - | - |
| 1777134731 | 21.67° C | 17% | 1016.6 hPa | 0 mm | - | - | - |
| 1777132930 | 22.78° C | 13% | 1016.6 hPa | 0 mm | - | - | - |
| 1777131130 | 23.33° C | 14% | 1016.6 hPa | 0 mm | - | - | - |
| 1777129330 | 22.78° C | 15% | 1016.6 hPa | 0 mm | - | - | - |
| 1777127530 | 23.33° C | 15% | 1016.5 hPa | 0 mm | - | - | - |
| 1777125730 | 22.78° C | 15% | 1016.8 hPa | 0 mm | - | - | - |
| 1777123930 | 22.78° C | 16% | 1017 hPa | 0 mm | - | - | - |
| 1777122130 | 22.22° C | 13% | 1017.2 hPa | 0 mm | - | - | - |
| 1777120330 | 21.67° C | 13% | 1017.3 hPa | 0 mm | - | - | - |
| 1777118531 | 21.67° C | 15% | 1017.6 hPa | 0 mm | - | - | - |
| 1777116730 | 20.56° C | 19% | 1017.9 hPa | 0 mm | - | - | - |
| 1777114932 | 20° C | 18% | 1018.1 hPa | 0 mm | - | - | - |
* Rain since midnight (hover to see other rain measurements)
** Current wind speed in m/s (hover to see current wind gust speed)